sensor_id;sensor_type;location;lat;lon;timestamp;P1;durP1;ratioP1;P2;durP2;ratioP2
39022;SDS011;25908;51.984;5.928;2023-04-25T00:02:16;9.65;;;2.40;;
39022;SDS011;25908;51.984;5.928;2023-04-25T00:04:42;9.02;;;2.10;;
39022;SDS011;25908;51.984;5.928;2023-04-25T00:07:08;11.75;;;2.72;;
39022;SDS011;25908;51.984;5.928;2023-04-25T00:09:34;10.07;;;2.42;;
39022;SDS011;25908;51.984;5.928;2023-04-25T00:11:59;6.95;;;2.65;;
39022;SDS011;25908;51.984;5.928;2023-04-25T00:14:26;10.02;;;2.88;;
39022;SDS011;25908;51.984;5.928;2023-04-25T00:16:52;6.95;;;2.38;;
39022;SDS011;25908;51.984;5.928;2023-04-25T00:19:19;7.35;;;3.10;;
39022;SDS011;25908;51.984;5.928;2023-04-25T00:21:44;13.05;;;3.97;;
39022;SDS011;25908;51.984;5.928;2023-04-25T00:24:11;11.30;;;2.38;;
39022;SDS011;25908;51.984;5.928;2023-04-25T00:26:37;9.02;;;2.75;;
39022;SDS011;25908;51.984;5.928;2023-04-25T00:29:03;9.70;;;2.85;;
39022;SDS011;25908;51.984;5.928;2023-04-25T00:31:28;9.23;;;2.50;;
39022;SDS011;25908;51.984;5.928;2023-04-25T00:33:54;7.88;;;2.55;;
39022;SDS011;25908;51.984;5.928;2023-04-25T00:36:20;9.32;;;2.50;;
39022;SDS011;25908;51.984;5.928;2023-04-25T00:38:46;11.63;;;2.83;;
39022;SDS011;25908;51.984;5.928;2023-04-25T00:41:11;9.40;;;2.90;;
39022;SDS011;25908;51.984;5.928;2023-04-25T00:43:37;11.10;;;2.58;;
39022;SDS011;25908;51.984;5.928;2023-04-25T00:46:03;10.00;;;2.90;;
39022;SDS011;25908;51.984;5.928;2023-04-25T00:48:29;7.82;;;2.65;;
39022;SDS011;25908;51.984;5.928;2023-04-25T00:50:57;12.13;;;2.75;;
39022;SDS011;25908;51.984;5.928;2023-04-25T00:53:24;11.90;;;3.15;;
39022;SDS011;25908;51.984;5.928;2023-04-25T00:55:51;14.07;;;2.88;;
39022;SDS011;25908;51.984;5.928;2023-04-25T00:58:17;14.88;;;3.03;;
39022;SDS011;25908;51.984;5.928;2023-04-25T01:00:44;7.35;;;2.70;;
39022;SDS011;25908;51.984;5.928;2023-04-25T01:03:11;7.07;;;2.53;;
39022;SDS011;25908;51.984;5.928;2023-04-25T01:05:41;15.10;;;3.53;;
39022;SDS011;25908;51.984;5.928;2023-04-25T01:08:07;13.20;;;3.38;;
39022;SDS011;25908;51.984;5.928;2023-04-25T01:10:32;11.25;;;2.65;;
39022;SDS011;25908;51.984;5.928;2023-04-25T01:12:58;9.38;;;3.58;;
39022;SDS011;25908;51.984;5.928;2023-04-25T01:15:24;13.23;;;3.97;;
39022;SDS011;25908;51.984;5.928;2023-04-25T01:17:49;13.73;;;3.08;;
39022;SDS011;25908;51.984;5.928;2023-04-25T01:20:15;12.05;;;3.05;;
39022;SDS011;25908;51.984;5.928;2023-04-25T01:22:42;8.90;;;3.13;;
39022;SDS011;25908;51.984;5.928;2023-04-25T01:25:08;9.85;;;3.45;;
39022;SDS011;25908;51.984;5.928;2023-04-25T01:27:35;9.50;;;3.00;;
39022;SDS011;25908;51.984;5.928;2023-04-25T01:30:02;12.90;;;3.15;;
39022;SDS011;25908;51.984;5.928;2023-04-25T01:32:29;11.40;;;3.63;;
39022;SDS011;25908;51.984;5.928;2023-04-25T01:35:03;10.38;;;3.08;;
39022;SDS011;25908;51.984;5.928;2023-04-25T01:37:39;10.10;;;2.78;;
39022;SDS011;25908;51.984;5.928;2023-04-25T01:40:06;15.52;;;3.45;;
39022;SDS011;25908;51.984;5.928;2023-04-25T01:42:33;11.40;;;3.60;;
39022;SDS011;25908;51.984;5.928;2023-04-25T01:45:01;9.18;;;3.30;;
39022;SDS011;25908;51.984;5.928;2023-04-25T01:47:27;11.98;;;3.88;;
39022;SDS011;25908;51.984;5.928;2023-04-25T01:49:52;11.75;;;3.10;;
39022;SDS011;25908;51.984;5.928;2023-04-25T01:52:18;13.18;;;3.05;;
39022;SDS011;25908;51.984;5.928;2023-04-25T01:54:44;13.85;;;3.33;;
39022;SDS011;25908;51.984;5.928;2023-04-25T01:57:10;16.27;;;3.33;;
39022;SDS011;25908;51.984;5.928;2023-04-25T01:59:36;14.30;;;3.65;;
39022;SDS011;25908;51.984;5.928;2023-04-25T02:02:02;14.90;;;4.90;;
39022;SDS011;25908;51.984;5.928;2023-04-25T02:04:29;12.40;;;3.38;;
39022;SDS011;25908;51.984;5.928;2023-04-25T02:06:55;11.68;;;3.30;;
39022;SDS011;25908;51.984;5.928;2023-04-25T02:09:21;14.63;;;3.35;;
39022;SDS011;25908;51.984;5.928;2023-04-25T02:11:47;16.60;;;3.90;;
39022;SDS011;25908;51.984;5.928;2023-04-25T02:14:12;13.15;;;3.40;;
39022;SDS011;25908;51.984;5.928;2023-04-25T02:16:38;12.63;;;3.70;;
39022;SDS011;25908;51.984;5.928;2023-04-25T02:19:04;14.00;;;3.60;;
39022;SDS011;25908;51.984;5.928;2023-04-25T02:21:30;14.35;;;3.33;;
39022;SDS011;25908;51.984;5.928;2023-04-25T02:23:56;13.75;;;3.45;;
39022;SDS011;25908;51.984;5.928;2023-04-25T02:26:22;12.48;;;4.25;;
39022;SDS011;25908;51.984;5.928;2023-04-25T02:28:49;16.85;;;3.65;;
39022;SDS011;25908;51.984;5.928;2023-04-25T02:31:15;11.93;;;3.72;;
39022;SDS011;25908;51.984;5.928;2023-04-25T02:33:41;11.00;;;3.40;;
39022;SDS011;25908;51.984;5.928;2023-04-25T02:36:07;12.60;;;3.30;;
39022;SDS011;25908;51.984;5.928;2023-04-25T02:38:34;13.75;;;3.42;;
39022;SDS011;25908;51.984;5.928;2023-04-25T02:41:00;12.68;;;3.25;;
39022;SDS011;25908;51.984;5.928;2023-04-25T02:43:26;8.55;;;2.85;;
39022;SDS011;25908;51.984;5.928;2023-04-25T02:45:51;8.07;;;3.17;;
39022;SDS011;25908;51.984;5.928;2023-04-25T02:48:17;11.63;;;3.30;;
39022;SDS011;25908;51.984;5.928;2023-04-25T02:50:43;15.43;;;3.90;;
39022;SDS011;25908;51.984;5.928;2023-04-25T02:53:08;10.13;;;3.10;;
39022;SDS011;25908;51.984;5.928;2023-04-25T02:55:34;10.30;;;3.22;;
39022;SDS011;25908;51.984;5.928;2023-04-25T02:58:00;10.43;;;3.10;;
39022;SDS011;25908;51.984;5.928;2023-04-25T03:00:25;12.65;;;3.08;;
39022;SDS011;25908;51.984;5.928;2023-04-25T03:02:51;10.82;;;3.45;;
39022;SDS011;25908;51.984;5.928;2023-04-25T03:05:17;9.40;;;2.70;;
39022;SDS011;25908;51.984;5.928;2023-04-25T03:07:43;14.35;;;2.83;;
39022;SDS011;25908;51.984;5.928;2023-04-25T03:10:09;10.18;;;3.25;;
39022;SDS011;25908;51.984;5.928;2023-04-25T03:12:35;12.25;;;3.08;;
39022;SDS011;25908;51.984;5.928;2023-04-25T03:15:01;9.48;;;2.90;;
39022;SDS011;25908;51.984;5.928;2023-04-25T03:17:27;13.95;;;3.42;;
39022;SDS011;25908;51.984;5.928;2023-04-25T03:19:53;8.50;;;2.70;;
39022;SDS011;25908;51.984;5.928;2023-04-25T03:22:19;11.07;;;2.70;;
39022;SDS011;25908;51.984;5.928;2023-04-25T03:24:44;10.63;;;3.20;;
39022;SDS011;25908;51.984;5.928;2023-04-25T03:27:10;10.60;;;2.97;;
39022;SDS011;25908;51.984;5.928;2023-04-25T03:29:36;9.27;;;3.45;;
39022;SDS011;25908;51.984;5.928;2023-04-25T03:32:01;9.73;;;3.22;;
39022;SDS011;25908;51.984;5.928;2023-04-25T03:34:27;12.63;;;3.85;;
39022;SDS011;25908;51.984;5.928;2023-04-25T03:36:53;9.90;;;3.20;;
39022;SDS011;25908;51.984;5.928;2023-04-25T03:39:18;12.60;;;3.10;;
39022;SDS011;25908;51.984;5.928;2023-04-25T03:41:44;13.52;;;3.00;;
39022;SDS011;25908;51.984;5.928;2023-04-25T03:44:09;10.18;;;2.90;;
39022;SDS011;25908;51.984;5.928;2023-04-25T03:46:35;9.82;;;2.65;;
39022;SDS011;25908;51.984;5.928;2023-04-25T03:49:00;10.38;;;3.55;;
39022;SDS011;25908;51.984;5.928;2023-04-25T03:51:26;8.90;;;2.83;;
39022;SDS011;25908;51.984;5.928;2023-04-25T03:53:52;9.20;;;3.42;;
39022;SDS011;25908;51.984;5.928;2023-04-25T03:56:17;11.07;;;3.15;;
39022;SDS011;25908;51.984;5.928;2023-04-25T03:58:43;8.60;;;3.00;;
39022;SDS011;25908;51.984;5.928;2023-04-25T04:01:09;9.75;;;2.95;;
39022;SDS011;25908;51.984;5.928;2023-04-25T04:03:35;11.48;;;3.20;;
39022;SDS011;25908;51.984;5.928;2023-04-25T04:06:02;12.88;;;2.88;;
39022;SDS011;25908;51.984;5.928;2023-04-25T04:08:31;10.68;;;3.10;;
39022;SDS011;25908;51.984;5.928;2023-04-25T04:10:58;10.32;;;3.00;;
39022;SDS011;25908;51.984;5.928;2023-04-25T04:13:27;12.70;;;3.47;;
39022;SDS011;25908;51.984;5.928;2023-04-25T04:15:53;8.35;;;3.40;;
39022;SDS011;25908;51.984;5.928;2023-04-25T04:18:20;9.77;;;3.00;;
39022;SDS011;25908;51.984;5.928;2023-04-25T04:20:46;12.00;;;3.17;;
39022;SDS011;25908;51.984;5.928;2023-04-25T04:23:12;7.93;;;2.63;;
39022;SDS011;25908;51.984;5.928;2023-04-25T04:25:37;11.90;;;3.42;;
39022;SDS011;25908;51.984;5.928;2023-04-25T04:28:04;10.05;;;3.67;;
39022;SDS011;25908;51.984;5.928;2023-04-25T04:30:31;7.85;;;3.05;;
39022;SDS011;25908;51.984;5.928;2023-04-25T04:33:01;9.35;;;3.17;;
39022;SDS011;25908;51.984;5.928;2023-04-25T04:35:26;9.25;;;3.10;;
39022;SDS011;25908;51.984;5.928;2023-04-25T04:37:52;9.77;;;3.25;;
39022;SDS011;25908;51.984;5.928;2023-04-25T04:40:19;11.68;;;3.20;;
39022;SDS011;25908;51.984;5.928;2023-04-25T04:42:45;13.23;;;3.00;;
39022;SDS011;25908;51.984;5.928;2023-04-25T04:45:11;12.55;;;3.22;;
39022;SDS011;25908;51.984;5.928;2023-04-25T04:47:37;18.10;;;3.63;;
39022;SDS011;25908;51.984;5.928;2023-04-25T04:50:04;12.45;;;3.28;;
39022;SDS011;25908;51.984;5.928;2023-04-25T04:52:32;11.55;;;3.20;;
39022;SDS011;25908;51.984;5.928;2023-04-25T04:54:57;16.17;;;3.53;;
39022;SDS011;25908;51.984;5.928;2023-04-25T04:57:23;8.93;;;4.30;;
39022;SDS011;25908;51.984;5.928;2023-04-25T04:59:48;12.65;;;3.53;;
39022;SDS011;25908;51.984;5.928;2023-04-25T05:02:15;10.77;;;3.05;;
39022;SDS011;25908;51.984;5.928;2023-04-25T05:04:40;10.18;;;3.45;;
39022;SDS011;25908;51.984;5.928;2023-04-25T05:07:06;14.73;;;4.28;;
39022;SDS011;25908;51.984;5.928;2023-04-25T05:09:32;9.25;;;3.97;;
39022;SDS011;25908;51.984;5.928;2023-04-25T05:11:57;8.75;;;3.75;;
39022;SDS011;25908;51.984;5.928;2023-04-25T05:14:23;7.85;;;3.50;;
39022;SDS011;25908;51.984;5.928;2023-04-25T05:16:48;14.93;;;3.85;;
39022;SDS011;25908;51.984;5.928;2023-04-25T05:19:14;12.05;;;3.50;;
39022;SDS011;25908;51.984;5.928;2023-04-25T05:21:39;12.85;;;3.70;;
39022;SDS011;25908;51.984;5.928;2023-04-25T05:24:05;11.77;;;3.97;;
39022;SDS011;25908;51.984;5.928;2023-04-25T05:26:31;14.13;;;3.80;;
39022;SDS011;25908;51.984;5.928;2023-04-25T05:28:57;11.95;;;3.45;;
39022;SDS011;25908;51.984;5.928;2023-04-25T05:31:23;11.88;;;3.67;;
39022;SDS011;25908;51.984;5.928;2023-04-25T05:33:48;11.85;;;3.97;;
39022;SDS011;25908;51.984;5.928;2023-04-25T05:36:14;12.00;;;3.70;;
39022;SDS011;25908;51.984;5.928;2023-04-25T05:38:40;11.25;;;3.35;;
39022;SDS011;25908;51.984;5.928;2023-04-25T05:41:05;14.32;;;3.60;;
39022;SDS011;25908;51.984;5.928;2023-04-25T05:43:32;10.38;;;2.90;;
39022;SDS011;25908;51.984;5.928;2023-04-25T05:45:57;11.07;;;3.60;;
39022;SDS011;25908;51.984;5.928;2023-04-25T05:48:24;11.52;;;3.13;;
39022;SDS011;25908;51.984;5.928;2023-04-25T05:50:49;13.23;;;3.28;;
39022;SDS011;25908;51.984;5.928;2023-04-25T05:53:16;9.25;;;3.35;;
39022;SDS011;25908;51.984;5.928;2023-04-25T05:55:42;10.20;;;3.03;;
39022;SDS011;25908;51.984;5.928;2023-04-25T05:58:09;13.10;;;3.60;;
39022;SDS011;25908;51.984;5.928;2023-04-25T06:00:36;12.60;;;3.28;;
39022;SDS011;25908;51.984;5.928;2023-04-25T06:03:02;12.88;;;3.22;;
39022;SDS011;25908;51.984;5.928;2023-04-25T06:05:28;11.27;;;3.33;;
39022;SDS011;25908;51.984;5.928;2023-04-25T06:07:55;10.48;;;3.55;;
39022;SDS011;25908;51.984;5.928;2023-04-25T06:10:20;19.02;;;4.10;;
39022;SDS011;25908;51.984;5.928;2023-04-25T06:12:47;8.75;;;3.05;;
39022;SDS011;25908;51.984;5.928;2023-04-25T06:15:13;13.65;;;4.15;;
39022;SDS011;25908;51.984;5.928;2023-04-25T06:17:38;13.30;;;4.10;;
39022;SDS011;25908;51.984;5.928;2023-04-25T06:20:05;7.78;;;3.17;;
39022;SDS011;25908;51.984;5.928;2023-04-25T06:22:33;9.57;;;3.08;;
39022;SDS011;25908;51.984;5.928;2023-04-25T06:24:58;10.98;;;3.20;;
39022;SDS011;25908;51.984;5.928;2023-04-25T06:27:25;12.75;;;3.45;;
39022;SDS011;25908;51.984;5.928;2023-04-25T06:29:50;10.02;;;2.67;;
39022;SDS011;25908;51.984;5.928;2023-04-25T06:32:16;9.52;;;2.58;;
39022;SDS011;25908;51.984;5.928;2023-04-25T06:34:43;10.02;;;2.97;;
39022;SDS011;25908;51.984;5.928;2023-04-25T06:37:09;8.48;;;2.63;;
39022;SDS011;25908;51.984;5.928;2023-04-25T06:39:35;6.68;;;2.50;;
39022;SDS011;25908;51.984;5.928;2023-04-25T06:42:00;12.35;;;2.97;;
39022;SDS011;25908;51.984;5.928;2023-04-25T06:44:26;8.10;;;2.90;;
39022;SDS011;25908;51.984;5.928;2023-04-25T06:46:54;10.20;;;3.17;;
39022;SDS011;25908;51.984;5.928;2023-04-25T06:49:20;10.75;;;3.00;;
39022;SDS011;25908;51.984;5.928;2023-04-25T06:51:45;10.60;;;3.33;;
39022;SDS011;25908;51.984;5.928;2023-04-25T06:54:11;9.85;;;3.13;;
39022;SDS011;25908;51.984;5.928;2023-04-25T06:56:37;14.52;;;3.63;;
39022;SDS011;25908;51.984;5.928;2023-04-25T06:59:03;7.45;;;2.78;;
39022;SDS011;25908;51.984;5.928;2023-04-25T07:01:28;5.28;;;2.38;;
39022;SDS011;25908;51.984;5.928;2023-04-25T07:03:54;11.70;;;2.80;;
39022;SDS011;25908;51.984;5.928;2023-04-25T07:06:20;12.13;;;2.80;;
39022;SDS011;25908;51.984;5.928;2023-04-25T07:08:46;8.23;;;3.05;;
39022;SDS011;25908;51.984;5.928;2023-04-25T07:11:11;8.02;;;2.88;;
39022;SDS011;25908;51.984;5.928;2023-04-25T07:13:37;9.82;;;2.80;;
39022;SDS011;25908;51.984;5.928;2023-04-25T07:16:02;9.65;;;2.63;;
39022;SDS011;25908;51.984;5.928;2023-04-25T07:18:28;13.00;;;2.85;;
39022;SDS011;25908;51.984;5.928;2023-04-25T07:20:54;10.77;;;2.90;;
39022;SDS011;25908;51.984;5.928;2023-04-25T07:23:20;12.75;;;2.90;;
39022;SDS011;25908;51.984;5.928;2023-04-25T07:25:46;10.75;;;3.35;;
39022;SDS011;25908;51.984;5.928;2023-04-25T07:28:11;10.02;;;2.58;;
39022;SDS011;25908;51.984;5.928;2023-04-25T07:30:37;9.82;;;2.55;;
39022;SDS011;25908;51.984;5.928;2023-04-25T07:33:03;8.10;;;2.53;;
39022;SDS011;25908;51.984;5.928;2023-04-25T07:35:28;9.18;;;2.50;;
39022;SDS011;25908;51.984;5.928;2023-04-25T07:37:56;11.48;;;3.03;;
39022;SDS011;25908;51.984;5.928;2023-04-25T07:40:21;9.57;;;2.40;;
39022;SDS011;25908;51.984;5.928;2023-04-25T07:42:47;11.50;;;2.40;;
39022;SDS011;25908;51.984;5.928;2023-04-25T07:45:13;7.40;;;1.98;;
39022;SDS011;25908;51.984;5.928;2023-04-25T07:47:38;10.05;;;2.50;;
39022;SDS011;25908;51.984;5.928;2023-04-25T07:50:04;12.35;;;2.55;;
39022;SDS011;25908;51.984;5.928;2023-04-25T07:52:31;7.30;;;1.75;;
39022;SDS011;25908;51.984;5.928;2023-04-25T07:54:57;10.85;;;2.80;;
39022;SDS011;25908;51.984;5.928;2023-04-25T07:57:23;8.02;;;1.80;;
39022;SDS011;25908;51.984;5.928;2023-04-25T07:59:49;6.20;;;1.80;;
39022;SDS011;25908;51.984;5.928;2023-04-25T08:02:15;8.50;;;1.65;;
39022;SDS011;25908;51.984;5.928;2023-04-25T08:04:40;8.35;;;1.67;;
39022;SDS011;25908;51.984;5.928;2023-04-25T08:07:06;11.20;;;1.60;;
39022;SDS011;25908;51.984;5.928;2023-04-25T08:09:31;5.53;;;1.23;;
39022;SDS011;25908;51.984;5.928;2023-04-25T08:12:01;5.80;;;1.48;;
39022;SDS011;25908;51.984;5.928;2023-04-25T08:14:28;5.95;;;1.40;;
39022;SDS011;25908;51.984;5.928;2023-04-25T08:16:56;10.05;;;1.63;;
39022;SDS011;25908;51.984;5.928;2023-04-25T08:19:21;9.73;;;1.67;;
39022;SDS011;25908;51.984;5.928;2023-04-25T08:21:47;7.63;;;1.63;;
39022;SDS011;25908;51.984;5.928;2023-04-25T08:24:13;5.07;;;1.10;;
39022;SDS011;25908;51.984;5.928;2023-04-25T08:26:38;6.93;;;1.70;;
39022;SDS011;25908;51.984;5.928;2023-04-25T08:29:05;5.47;;;1.13;;
39022;SDS011;25908;51.984;5.928;2023-04-25T08:31:31;6.32;;;1.05;;
39022;SDS011;25908;51.984;5.928;2023-04-25T08:33:57;3.65;;;0.80;;
39022;SDS011;25908;51.984;5.928;2023-04-25T08:36:22;5.47;;;1.45;;
39022;SDS011;25908;51.984;5.928;2023-04-25T08:38:48;5.88;;;1.13;;
39022;SDS011;25908;51.984;5.928;2023-04-25T08:41:14;5.18;;;1.00;;
39022;SDS011;25908;51.984;5.928;2023-04-25T08:43:42;4.32;;;0.80;;
39022;SDS011;25908;51.984;5.928;2023-04-25T08:46:08;5.45;;;1.33;;
39022;SDS011;25908;51.984;5.928;2023-04-25T08:48:36;4.63;;;1.20;;
39022;SDS011;25908;51.984;5.928;2023-04-25T08:51:02;7.53;;;1.10;;
39022;SDS011;25908;51.984;5.928;2023-04-25T08:53:32;5.13;;;1.13;;
39022;SDS011;25908;51.984;5.928;2023-04-25T08:55:59;5.95;;;0.90;;
39022;SDS011;25908;51.984;5.928;2023-04-25T08:58:29;5.22;;;1.10;;
39022;SDS011;25908;51.984;5.928;2023-04-25T09:00:56;6.03;;;1.40;;
39022;SDS011;25908;51.984;5.928;2023-04-25T09:03:22;3.58;;;1.13;;
39022;SDS011;25908;51.984;5.928;2023-04-25T09:05:48;6.93;;;1.40;;
39022;SDS011;25908;51.984;5.928;2023-04-25T09:08:15;8.68;;;1.73;;
39022;SDS011;25908;51.984;5.928;2023-04-25T09:10:40;6.40;;;1.08;;
39022;SDS011;25908;51.984;5.928;2023-04-25T09:13:07;5.63;;;1.20;;
39022;SDS011;25908;51.984;5.928;2023-04-25T09:15:48;5.55;;;0.98;;
39022;SDS011;25908;51.984;5.928;2023-04-25T09:18:28;5.45;;;1.25;;
39022;SDS011;25908;51.984;5.928;2023-04-25T09:21:05;6.80;;;1.00;;
39022;SDS011;25908;51.984;5.928;2023-04-25T09:23:39;4.00;;;0.70;;
39022;SDS011;25908;51.984;5.928;2023-04-25T09:26:06;5.55;;;1.00;;
39022;SDS011;25908;51.984;5.928;2023-04-25T09:28:36;5.05;;;0.90;;
39022;SDS011;25908;51.984;5.928;2023-04-25T09:31:03;3.13;;;0.88;;
39022;SDS011;25908;51.984;5.928;2023-04-25T09:33:32;5.45;;;1.13;;
39022;SDS011;25908;51.984;5.928;2023-04-25T09:36:03;13.10;;;1.85;;
39022;SDS011;25908;51.984;5.928;2023-04-25T09:38:42;6.47;;;1.13;;
39022;SDS011;25908;51.984;5.928;2023-04-25T09:41:09;10.00;;;1.73;;
39022;SDS011;25908;51.984;5.928;2023-04-25T09:43:36;7.43;;;1.20;;
39022;SDS011;25908;51.984;5.928;2023-04-25T09:46:02;7.57;;;1.10;;
39022;SDS011;25908;51.984;5.928;2023-04-25T09:48:32;5.57;;;0.93;;
39022;SDS011;25908;51.984;5.928;2023-04-25T09:53:28;7.15;;;1.05;;
39022;SDS011;25908;51.984;5.928;2023-04-25T09:55:55;4.32;;;0.95;;
39022;SDS011;25908;51.984;5.928;2023-04-25T09:58:21;8.25;;;1.00;;
39022;SDS011;25908;51.984;5.928;2023-04-25T10:00:50;4.82;;;1.23;;
39022;SDS011;25908;51.984;5.928;2023-04-25T10:03:17;4.28;;;0.70;;
39022;SDS011;25908;51.984;5.928;2023-04-25T10:05:43;3.80;;;1.13;;
39022;SDS011;25908;51.984;5.928;2023-04-25T10:08:09;4.20;;;0.90;;
39022;SDS011;25908;51.984;5.928;2023-04-25T10:10:36;4.72;;;1.00;;
39022;SDS011;25908;51.984;5.928;2023-04-25T10:13:05;4.53;;;0.98;;
39022;SDS011;25908;51.984;5.928;2023-04-25T10:15:35;4.55;;;1.17;;
39022;SDS011;25908;51.984;5.928;2023-04-25T10:18:04;5.03;;;0.90;;
39022;SDS011;25908;51.984;5.928;2023-04-25T10:20:31;3.53;;;0.85;;
39022;SDS011;25908;51.984;5.928;2023-04-25T10:23:03;5.88;;;0.88;;
39022;SDS011;25908;51.984;5.928;2023-04-25T10:25:33;7.07;;;1.00;;
39022;SDS011;25908;51.984;5.928;2023-04-25T10:27:59;4.03;;;1.10;;
39022;SDS011;25908;51.984;5.928;2023-04-25T10:30:27;8.25;;;1.20;;
39022;SDS011;25908;51.984;5.928;2023-04-25T10:32:54;4.55;;;0.93;;
39022;SDS011;25908;51.984;5.928;2023-04-25T10:35:24;4.88;;;0.70;;
39022;SDS011;25908;51.984;5.928;2023-04-25T10:40:37;5.68;;;0.98;;
39022;SDS011;25908;51.984;5.928;2023-04-25T10:45:56;5.43;;;1.30;;
39022;SDS011;25908;51.984;5.928;2023-04-25T10:48:26;6.35;;;1.00;;
39022;SDS011;25908;51.984;5.928;2023-04-25T10:51:08;5.18;;;1.25;;
39022;SDS011;25908;51.984;5.928;2023-04-25T10:53:34;5.15;;;1.00;;
39022;SDS011;25908;51.984;5.928;2023-04-25T10:56:00;8.57;;;1.20;;
39022;SDS011;25908;51.984;5.928;2023-04-25T10:58:25;3.75;;;0.82;;
39022;SDS011;25908;51.984;5.928;2023-04-25T11:00:52;5.22;;;1.13;;
39022;SDS011;25908;51.984;5.928;2023-04-25T11:03:20;3.08;;;0.80;;
39022;SDS011;25908;51.984;5.928;2023-04-25T11:05:47;6.47;;;1.00;;
39022;SDS011;25908;51.984;5.928;2023-04-25T11:08:14;5.00;;;1.30;;
39022;SDS011;25908;51.984;5.928;2023-04-25T11:10:49;4.55;;;0.88;;
39022;SDS011;25908;51.984;5.928;2023-04-25T11:13:15;5.93;;;1.00;;
39022;SDS011;25908;51.984;5.928;2023-04-25T11:15:41;3.55;;;0.90;;
39022;SDS011;25908;51.984;5.928;2023-04-25T11:18:07;4.22;;;0.80;;
39022;SDS011;25908;51.984;5.928;2023-04-25T11:20:33;4.00;;;0.85;;
39022;SDS011;25908;51.984;5.928;2023-04-25T11:22:58;4.72;;;0.90;;
39022;SDS011;25908;51.984;5.928;2023-04-25T11:25:25;3.70;;;1.17;;
39022;SDS011;25908;51.984;5.928;2023-04-25T11:27:55;4.30;;;0.90;;
39022;SDS011;25908;51.984;5.928;2023-04-25T11:30:22;3.78;;;0.80;;
39022;SDS011;25908;51.984;5.928;2023-04-25T11:32:51;3.25;;;0.80;;
39022;SDS011;25908;51.984;5.928;2023-04-25T11:35:19;4.18;;;0.88;;
39022;SDS011;25908;51.984;5.928;2023-04-25T11:37:47;3.95;;;1.13;;
39022;SDS011;25908;51.984;5.928;2023-04-25T11:40:13;1.92;;;0.73;;
39022;SDS011;25908;51.984;5.928;2023-04-25T11:42:43;3.83;;;0.70;;
39022;SDS011;25908;51.984;5.928;2023-04-25T11:45:11;3.42;;;0.63;;
39022;SDS011;25908;51.984;5.928;2023-04-25T11:47:37;3.92;;;0.80;;
39022;SDS011;25908;51.984;5.928;2023-04-25T11:50:04;3.38;;;0.80;;
39022;SDS011;25908;51.984;5.928;2023-04-25T11:52:39;3.40;;;1.40;;
39022;SDS011;25908;51.984;5.928;2023-04-25T11:55:12;3.55;;;0.80;;
39022;SDS011;25908;51.984;5.928;2023-04-25T11:57:43;4.43;;;0.95;;
39022;SDS011;25908;51.984;5.928;2023-04-25T12:02:42;3.80;;;0.85;;
39022;SDS011;25908;51.984;5.928;2023-04-25T12:05:09;4.22;;;1.17;;
39022;SDS011;25908;51.984;5.928;2023-04-25T12:07:36;5.82;;;0.88;;
39022;SDS011;25908;51.984;5.928;2023-04-25T12:10:06;3.50;;;0.97;;
39022;SDS011;25908;51.984;5.928;2023-04-25T12:15:22;3.47;;;0.60;;
39022;SDS011;25908;51.984;5.928;2023-04-25T12:17:50;4.93;;;0.90;;
39022;SDS011;25908;51.984;5.928;2023-04-25T12:20:20;5.03;;;0.98;;
39022;SDS011;25908;51.984;5.928;2023-04-25T12:22:51;4.97;;;0.70;;
39022;SDS011;25908;51.984;5.928;2023-04-25T12:31:02;4.35;;;0.90;;
39022;SDS011;25908;51.984;5.928;2023-04-25T12:33:33;5.35;;;0.75;;
39022;SDS011;25908;51.984;5.928;2023-04-25T12:35:59;4.70;;;1.17;;
39022;SDS011;25908;51.984;5.928;2023-04-25T12:38:35;2.90;;;0.80;;
39022;SDS011;25908;51.984;5.928;2023-04-25T12:41:01;2.65;;;0.70;;
39022;SDS011;25908;51.984;5.928;2023-04-25T12:43:27;5.93;;;2.15;;
39022;SDS011;25908;51.984;5.928;2023-04-25T12:45:53;6.43;;;1.30;;
39022;SDS011;25908;51.984;5.928;2023-04-25T12:48:20;5.50;;;1.27;;
39022;SDS011;25908;51.984;5.928;2023-04-25T12:50:47;5.50;;;1.27;;
39022;SDS011;25908;51.984;5.928;2023-04-25T12:53:20;4.25;;;1.20;;
39022;SDS011;25908;51.984;5.928;2023-04-25T12:55:47;3.03;;;0.63;;
39022;SDS011;25908;51.984;5.928;2023-04-25T12:58:14;3.10;;;0.82;;
39022;SDS011;25908;51.984;5.928;2023-04-25T13:00:40;3.60;;;0.80;;
39022;SDS011;25908;51.984;5.928;2023-04-25T13:03:06;3.75;;;0.88;;
39022;SDS011;25908;51.984;5.928;2023-04-25T13:05:33;4.25;;;1.02;;
39022;SDS011;25908;51.984;5.928;2023-04-25T13:07:58;8.45;;;2.78;;
39022;SDS011;25908;51.984;5.928;2023-04-25T13:10:24;4.93;;;0.82;;
39022;SDS011;25908;51.984;5.928;2023-04-25T13:12:50;4.10;;;1.17;;
39022;SDS011;25908;51.984;5.928;2023-04-25T13:15:15;2.80;;;0.80;;
39022;SDS011;25908;51.984;5.928;2023-04-25T13:17:41;3.65;;;0.95;;
39022;SDS011;25908;51.984;5.928;2023-04-25T13:20:07;3.67;;;1.10;;
39022;SDS011;25908;51.984;5.928;2023-04-25T13:22:37;4.03;;;1.13;;
39022;SDS011;25908;51.984;5.928;2023-04-25T13:25:04;5.18;;;1.48;;
39022;SDS011;25908;51.984;5.928;2023-04-25T13:27:31;4.93;;;1.00;;
39022;SDS011;25908;51.984;5.928;2023-04-25T13:29:59;5.57;;;1.13;;
39022;SDS011;25908;51.984;5.928;2023-04-25T13:32:26;3.10;;;0.70;;
39022;SDS011;25908;51.984;5.928;2023-04-25T13:34:52;4.38;;;0.80;;
39022;SDS011;25908;51.984;5.928;2023-04-25T13:37:18;4.00;;;0.88;;
39022;SDS011;25908;51.984;5.928;2023-04-25T13:39:44;4.88;;;0.65;;
39022;SDS011;25908;51.984;5.928;2023-04-25T13:42:09;3.78;;;0.80;;
39022;SDS011;25908;51.984;5.928;2023-04-25T13:44:36;4.38;;;1.25;;
39022;SDS011;25908;51.984;5.928;2023-04-25T13:47:01;6.40;;;0.93;;
39022;SDS011;25908;51.984;5.928;2023-04-25T13:49:27;5.13;;;0.70;;
39022;SDS011;25908;51.984;5.928;2023-04-25T13:51:53;2.30;;;0.70;;
39022;SDS011;25908;51.984;5.928;2023-04-25T13:54:19;1.98;;;0.70;;
39022;SDS011;25908;51.984;5.928;2023-04-25T13:56:44;3.05;;;0.80;;
39022;SDS011;25908;51.984;5.928;2023-04-25T13:59:10;2.03;;;0.68;;
39022;SDS011;25908;51.984;5.928;2023-04-25T14:01:36;3.80;;;0.80;;
39022;SDS011;25908;51.984;5.928;2023-04-25T14:04:02;5.10;;;0.70;;
39022;SDS011;25908;51.984;5.928;2023-04-25T14:06:31;2.55;;;0.55;;
39022;SDS011;25908;51.984;5.928;2023-04-25T14:08:57;2.45;;;0.63;;
39022;SDS011;25908;51.984;5.928;2023-04-25T14:11:22;3.15;;;0.70;;
39022;SDS011;25908;51.984;5.928;2023-04-25T14:13:48;3.78;;;0.70;;
39022;SDS011;25908;51.984;5.928;2023-04-25T14:16:14;3.28;;;0.60;;
39022;SDS011;25908;51.984;5.928;2023-04-25T14:18:40;4.03;;;0.90;;
39022;SDS011;25908;51.984;5.928;2023-04-25T14:21:06;4.80;;;0.90;;
39022;SDS011;25908;51.984;5.928;2023-04-25T14:23:32;2.20;;;0.57;;
39022;SDS011;25908;51.984;5.928;2023-04-25T14:25:57;4.65;;;0.85;;
39022;SDS011;25908;51.984;5.928;2023-04-25T14:28:23;4.82;;;0.88;;
39022;SDS011;25908;51.984;5.928;2023-04-25T14:30:49;3.75;;;1.10;;
39022;SDS011;25908;51.984;5.928;2023-04-25T14:33:14;3.83;;;1.27;;
39022;SDS011;25908;51.984;5.928;2023-04-25T14:35:40;2.85;;;0.75;;
39022;SDS011;25908;51.984;5.928;2023-04-25T14:38:06;7.72;;;1.67;;
39022;SDS011;25908;51.984;5.928;2023-04-25T14:40:32;3.15;;;0.88;;
39022;SDS011;25908;51.984;5.928;2023-04-25T14:42:58;3.08;;;0.80;;
39022;SDS011;25908;51.984;5.928;2023-04-25T14:45:24;4.18;;;0.90;;
39022;SDS011;25908;51.984;5.928;2023-04-25T14:47:52;3.60;;;1.00;;
39022;SDS011;25908;51.984;5.928;2023-04-25T14:50:20;2.78;;;0.70;;
39022;SDS011;25908;51.984;5.928;2023-04-25T14:52:46;5.45;;;0.80;;
39022;SDS011;25908;51.984;5.928;2023-04-25T14:55:12;3.92;;;0.80;;
39022;SDS011;25908;51.984;5.928;2023-04-25T14:57:37;6.50;;;1.25;;
39022;SDS011;25908;51.984;5.928;2023-04-25T15:00:04;8.30;;;1.50;;